Latest Weather Observations for Mount Gambier

IDS60801

Issued at 2:05 pm CST Tuesday 2 September 2014 (issued every 30 minutes, with the page automatically refreshed every 10 minutes)

About weather observations | Map of weather stations | Latest weather observations for SA | Other Formats
Station Details ID: 026021 Name: MOUNT GAMBIER AERO Lat: -37.75 Lon: 140.77 Height: 63.0 m
Data from the previous 72 hours. | See also: Recent months at Mount Gambier
Date/Time
CST
Temp
°C
App
Temp
°C
Dew
Point
Rel
Hum
%
Delta-T
°C
Wind Press
QNH
hPa
Press
MSL
hPa
Rain
since 9 am
mm
Dir
 
Spd
km/h
Gust
km/h
Spd
kts
Gust
kts
02/02:00pm 13.3 7.4 5.9 61 3.5 SSW 26 35 14 19 1022.9 - 0.0
02/01:30pm 12.7 6.6 4.6 58 3.7 SW 26 32 14 17 1023.1 - 0.0
02/01:00pm 12.9 8.4 6.9 67 2.9 SSW 20 28 11 15 1023.2 - 0.0
02/12:30pm 11.2 7.1 7.9 80 1.6 S 19 28 10 15 1023.3 - 0.0
02/12:00pm 12.0 8.4 6.7 70 2.5 SSW 15 22 8 12 1023.2 1023.3 0.0
02/11:30am 14.0 8.5 3.9 50 4.6 SSW 22 28 12 15 1023.1 - 0.0
02/11:00am 12.7 5.7 2.0 48 4.6 S 28 33 15 18 1023.3 - 0.0
02/10:30am 13.4 6.8 6.0 61 3.5 S 30 37 16 20 1023.4 - 0.0
02/10:00am 11.6 5.4 4.5 61 3.2 SSW 26 32 14 17 1023.1 - 0.0
02/09:30am 12.1 6.2 4.1 58 3.6 S 24 33 13 18 1023.0 - 0.0
02/09:00am 10.4 4.7 4.9 69 2.5 S 24 35 13 19 1022.9 1023.0 13.6
02/08:30am 11.1 6.5 5.7 69 2.5 S 19 26 10 14 1022.5 - 13.6
02/08:00am 9.6 5.9 6.1 79 1.6 SSW 15 22 8 12 1022.1 - 13.6
02/07:30am 8.2 5.2 6.2 87 0.9 WSW 11 13 6 7 1021.8 - 13.6
02/07:00am 7.6 4.7 6.3 91 0.6 SW 11 13 6 7 1021.4 - 13.6
02/06:30am 7.9 4.9 5.9 87 0.9 SW 11 15 6 8 1020.9 - 13.4
02/06:00am 7.6 3.1 6.1 90 0.7 WSW 19 28 10 15 1020.5 1020.6 13.4
02/05:54am 7.7 3.1 6.4 91 0.6 WSW 20 28 11 15 1020.5 - 13.4
02/05:30am 7.2 4.6 6.1 93 0.5 SW 9 11 5 6 1019.8 - 12.4
02/05:00am 6.8 4.2 5.9 94 0.4 SW 9 11 5 6 1019.2 - 12.4
02/04:30am 7.0 4.4 6.1 94 0.4 WSW 9 11 5 6 1018.8 - 12.4
02/04:00am 7.6 5.5 6.7 94 0.4 WSW 7 9 4 5 1018.3 - 12.4
02/03:43am 7.9 4.7 6.8 93 0.5 SW 13 15 7 8 1018.2 - 12.2
02/03:30am 8.0 4.8 6.9 93 0.5 SSW 13 19 7 10 1018.0 - 12.2
02/03:24am 7.9 5.0 6.4 90 0.7 SSW 11 19 6 10 1018.1 - 12.0
02/03:00am 7.6 5.0 6.3 91 0.6 SW 9 11 5 6 1017.7 1017.8 11.4
02/02:30am 7.9 4.1 5.9 87 0.9 S 15 20 8 11 1017.6 - 11.2
02/02:00am 7.6 3.9 4.6 81 1.3 WSW 13 17 7 9 1017.3 - 11.2
02/01:30am 7.0 3.2 4.0 81 1.3 W 13 15 7 8 1017.1 - 11.2
02/01:00am 6.4 2.6 3.8 83 1.1 W 13 15 7 8 1016.7 - 11.2
02/12:30am 5.4 2.3 3.5 87 0.8 WNW 9 11 5 6 1016.6 - 11.2
02/12:00am 6.0 3.3 3.6 84 1.0 WNW 7 11 4 6 1016.5 1016.6 11.2
 
Date/Time
CST
Temp
°C
App
Temp
°C
Dew
Point
Rel
Hum
%
Delta-T
°C
Wind Press
QNH
hPa
Press
MSL
hPa
Rain
since 9 am
mm
Dir
 
Spd
km/h
Gust
km/h
Spd
kts
Gust
kts
01/11:30pm 5.6 2.5 3.7 87 0.8 W 9 11 5 6 1016.4 - 11.2
01/11:00pm 5.9 2.6 4.5 91 0.6 W 11 11 6 6 1016.1 - 11.2
01/10:30pm 4.7 1.5 3.2 90 0.6 WNW 9 9 5 5 1015.8 - 11.2
01/10:00pm 4.8 2.0 3.4 91 0.6 W 7 9 4 5 1015.6 - 11.2
01/09:30pm 5.2 2.1 3.5 89 0.7 W 9 9 5 5 1015.5 - 11.2
01/09:00pm 5.1 2.1 3.9 92 0.5 WNW 9 9 5 5 1015.3 1015.4 11.2
01/08:30pm 6.0 3.4 4.1 88 0.8 W 7 7 4 4 1014.8 - 11.2
01/08:00pm 7.0 4.1 4.5 84 1.1 W 9 9 5 5 1014.6 - 11.2
01/07:30pm 7.3 4.4 4.8 84 1.1 W 9 9 5 5 1014.4 - 11.2
01/07:00pm 7.7 4.4 4.8 82 1.3 W 11 13 6 7 1014.1 - 11.2
01/06:30pm 8.5 5.3 5.2 80 1.5 W 11 13 6 7 1013.5 - 11.2
01/06:00pm 9.2 6.0 5.0 75 1.9 WSW 11 13 6 7 1013.2 1013.2 11.2
01/05:30pm 10.2 6.5 4.4 67 2.6 WSW 13 19 7 10 1012.8 - 11.2
01/05:00pm 11.2 6.8 4.6 64 3.0 WSW 17 26 9 14 1012.4 - 11.2
01/04:30pm 11.5 7.4 6.0 69 2.6 SW 17 26 9 14 1012.0 - 11.2
01/04:00pm 11.5 6.9 5.7 67 2.7 WSW 19 26 10 14 1011.7 - 11.2
01/03:30pm 11.7 8.7 9.3 85 1.2 W 15 19 8 10 1011.2 - 11.2
01/03:00pm 10.8 6.6 7.5 80 1.6 SW 19 33 10 18 1011.0 1011.1 11.2
01/02:30pm 11.5 5.6 7.6 77 1.9 SW 28 39 15 21 1010.8 - 11.2
01/02:00pm 12.3 7.8 6.9 69 2.6 SW 20 30 11 16 1010.5 - 11.0
01/01:30pm 11.7 6.0 8.5 81 1.6 WSW 28 35 15 19 1010.5 - 11.0
01/01:00pm 13.4 9.4 8.4 72 2.5 WSW 19 26 10 14 1010.3 - 11.0
01/12:30pm 12.4 8.5 8.6 77 1.9 W 19 20 10 11 1010.5 - 11.0
01/12:00pm 11.1 8.4 8.9 86 1.1 SW 13 19 7 10 1010.6 1010.7 11.0
01/11:30am 11.4 9.0 10.2 92 0.6 S 13 19 7 10 1010.6 - 11.0
01/11:00am 9.3 5.7 8.3 93 0.5 SW 17 19 9 10 1011.1 - 10.2
01/10:29am 10.1 6.3 9.1 93 0.5 W 19 35 10 19 1011.1 - 7.4
01/10:17am 10.8 8.2 9.4 91 0.7 W 13 22 7 12 1010.9 - 4.2
01/09:58am 11.9 10.4 9.3 84 1.3 SW 7 9 4 5 1010.2 - 1.0
01/09:30am 12.3 9.9 8.7 79 1.8 SW 11 13 6 7 1010.3 - 0.0
01/09:00am 12.9 11.0 9.2 78 1.9 SW 9 - 5 - 1010.2 1010.3 4.4
01/08:49am - - - - - - - - - - - - 4.4
01/08:30am 11.5 9.6 9.1 85 1.2 SW 9 - 5 - 1009.9 - 4.4
01/08:00am 10.9 9.3 10.1 95 0.4 SW 9 - 5 - 1009.6 - 4.4
01/07:30am 10.0 7.9 9.6 97 0.2 SW 11 - 6 - 1009.3 - 4.4
01/07:00am 10.0 7.0 9.4 96 0.3 SW 15 - 8 - 1009.1 - 4.4
01/06:30am 10.8 8.0 10.0 95 0.4 SW 15 - 8 - 1008.5 - 4.4
01/06:00am 11.2 7.2 10.6 96 0.3 SW 22 - 12 - 1008.3 1008.4 4.4
01/05:46am 11.4 - 10.6 95 0.4 - - - - - 1008.2 - 4.4
01/05:30am 11.5 - 10.9 96 0.3 - - - - - 1008.0 - 4.4
01/05:00am 11.6 - 11.0 96 0.3 - - - - - 1007.6 - 4.4
01/04:45am 11.6 - 11.0 96 0.3 - - - - - 1007.6 - 4.4
01/04:33am 11.4 - 11.0 97 0.2 - - - - - 1007.4 - 4.2
01/04:30am 11.4 - 11.0 97 0.2 - - - - - 1007.4 - 4.2
01/04:24am 11.3 - 10.9 97 0.2 - - - - - 1007.2 - 3.6
01/04:01am 11.2 - 10.6 96 0.3 - - - - - 1007.2 - 3.6
01/04:00am 11.2 - 10.6 96 0.3 - - - - - 1007.2 - 3.6
01/03:45am 11.6 - 10.8 95 0.4 - - - - - 1007.5 - 3.6
01/03:41am 11.6 - 10.8 95 0.4 - - - - - 1007.4 - 3.6
01/03:30am 11.8 - 10.8 94 0.5 - - - - - 1007.4 - 3.6
01/03:00am 11.3 - 10.1 92 0.6 - - - - - 1007.4 1007.5 3.6
01/02:30am 11.7 - 10.9 95 0.4 - - - - - 1007.9 - 3.4
01/02:00am 11.8 - 11.0 95 0.4 - - - - - 1008.0 - 3.4
01/01:30am 11.9 - 11.3 96 0.3 - - - - - 1008.2 - 3.4
01/01:15am 12.0 - 11.2 95 0.4 - - - - - 1008.2 - 3.4
01/01:04am 12.1 - 11.3 95 0.4 - - - - - 1008.2 - 3.2
01/01:00am 12.1 - 11.3 95 0.4 - - - - - 1008.2 - 2.8
01/12:30am 11.9 - 10.8 93 0.6 - - - - - 1007.4 - 1.4
01/12:00am 11.8 - 10.4 91 0.7 - - - - - 1007.6 1007.7 0.6
 
Date/Time
CST
Temp
°C
App
Temp
°C
Dew
Point
Rel
Hum
%
Delta-T
°C
Wind Press
QNH
hPa
Press
MSL
hPa
Rain
since 9 am
mm
Dir
 
Spd
km/h
Gust
km/h
Spd
kts
Gust
kts
31/11:30pm 12.0 - 9.6 85 1.2 - - - - - 1008.0 - 0.4
31/11:00pm 12.3 - 8.5 77 1.9 - - - - - 1007.8 - 0.2
31/10:30pm 12.7 - 7.8 72 2.4 - - - - - 1007.8 - 0.2
31/10:00pm 12.8 - 8.0 72 2.4 - - - - - 1007.6 - 0.0
31/09:30pm 12.4 - 8.2 75 2.1 - - - - - 1008.1 - 0.0
31/09:00pm 13.8 - 6.3 60 3.6 - - - - - 1008.0 1008.1 0.0
31/08:30pm 13.4 - 6.8 64 3.2 - - - - - 1009.0 - 0.0
31/08:00pm 14.3 - 6.2 58 3.9 - - - - - 1008.9 - 0.0
31/07:30pm 15.2 - 5.1 51 4.8 - - - - - 1009.6 - 0.0
31/07:00pm 15.3 - 4.1 47 5.2 - - - - - 1009.4 - 0.0
31/06:30pm 16.2 - 2.5 39 6.2 - - - - - 1009.4 - 0.0
31/06:00pm 15.7 - 4.1 46 5.4 - - - - - 1009.5 1009.6 0.0
31/05:30pm 15.9 - 5.5 50 5.0 - - - - - 1009.4 - 0.0
31/05:00pm 16.3 - 5.3 48 5.3 - - - - - 1008.2 - 0.0
31/04:30pm 17.1 - 3.9 41 6.2 - - - - - 1008.9 - 0.0
31/04:00pm 17.8 - 3.5 38 6.7 - - - - - 1009.5 - 0.0
31/03:30pm 18.2 - 4.7 41 6.5 - - - - - 1009.8 - 0.0
31/03:00pm 18.5 - 5.7 43 6.3 - - - - - 1009.8 1009.9 0.0
31/02:30pm 18.5 - 6.2 44 6.1 - - - - - 1010.0 - 0.0
31/02:00pm 18.8 - 4.7 39 6.8 - - - - - 1010.2 - 0.0
31/01:30pm 19.5 - 6.1 41 6.7 - - - - - 1010.4 - 0.0
31/01:00pm 18.8 - 6.1 43 6.3 - - - - - 1010.9 - 0.0
31/12:30pm 19.9 - 6.6 42 6.7 - - - - - 1011.3 - 0.0
31/12:00pm 18.5 - 6.5 45 6.0 - - - - - 1011.8 1011.8 0.0
31/11:30am 17.4 - 6.8 49 5.3 - - - - - 1012.4 - 0.0
31/11:00am 16.1 - 7.3 56 4.4 - - - - - 1012.9 - 0.0
31/10:30am 15.6 - 6.6 55 4.4 - - - - - 1013.4 - 0.0
31/10:00am 15.6 - 6.9 56 4.3 - - - - - 1013.7 - 0.0
31/09:30am 14.2 - 6.3 59 3.8 - - - - - 1013.9 - 0.0
31/09:00am 13.8 - 5.8 58 3.8 - - - - - 1014.1 1014.1 0.0
31/08:30am 12.9 - 5.4 60 3.5 - - - - - 1014.4 - 0.0
31/08:00am 12.3 - 5.2 62 3.3 - - - - - 1014.6 - 0.0
31/07:30am 11.9 - 4.7 61 3.3 - - - - - 1014.6 - 0.0
31/07:00am 12.0 - 4.5 60 3.4 - - - - - 1014.8 - 0.0
31/06:30am 11.9 - 4.7 61 3.3 - - - - - 1015.0 - 0.0
31/06:00am 12.1 - 4.7 60 3.4 - - - - - 1014.9 1015.0 0.0
31/05:30am 12.2 - 4.5 59 3.5 - - - - - 1014.9 - 0.0
31/05:00am 12.1 - 4.9 61 3.3 - - - - - 1014.7 - 0.0
31/04:30am 12.1 - 4.9 61 3.3 - - - - - 1014.8 - 0.0
31/04:00am 12.1 - 4.9 61 3.3 - - - - - 1015.0 - 0.0
31/03:30am 11.4 - 5.3 66 2.8 - - - - - 1015.1 - 0.0
31/03:00am 10.1 - 5.8 74 2.0 - - - - - 1015.6 1015.7 0.0
31/02:30am 10.6 - 5.9 73 2.2 - - - - - 1015.6 - 0.0
31/02:00am 10.7 - 6.0 73 2.2 - - - - - 1016.1 - 0.0
31/01:30am 10.7 - 6.0 73 2.2 - - - - - 1016.8 - 0.0
31/01:00am 11.2 - 6.3 72 2.3 - - - - - 1016.9 - 0.0
31/12:30am 12.0 - 6.5 69 2.6 - - - - - 1017.0 - 0.0
31/12:00am 12.5 - 6.6 67 2.8 - - - - - 1017.3 1017.4 0.0
 
Date/Time
CST
Temp
°C
App
Temp
°C
Dew
Point
Rel
Hum
%
Delta-T
°C
Wind Press
QNH
hPa
Press
MSL
hPa
Rain
since 9 am
mm
Dir
 
Spd
km/h
Gust
km/h
Spd
kts
Gust
kts
30/11:30pm 11.9 - 7.1 72 2.3 - - - - - 1017.5 - 0.0
30/11:00pm 13.3 - 7.1 66 3.0 - - - - - 1017.7 - 0.0
30/10:30pm 13.8 - 7.5 66 3.1 - - - - - 1018.1 - 0.0
30/10:00pm 13.3 - 8.3 72 2.5 - - - - - 1018.6 - 0.0
30/09:30pm 14.6 - 8.0 64 3.3 - - - - - 1018.8 - 0.0
30/09:00pm 15.6 - 8.0 60 3.8 - - - - - 1018.8 1018.9 0.0
30/08:30pm 14.7 - 8.6 67 3.1 - - - - - 1019.0 - 0.0
30/08:00pm 15.0 - 8.9 67 3.1 - - - - - 1019.0 - 0.0
30/07:30pm 15.5 - 8.4 62 3.6 - - - - - 1019.2 - 0.0
30/07:00pm 14.1 - 9.6 74 2.3 - - - - - 1019.5 - 0.0
30/06:30pm 15.0 - 10.6 75 2.3 - - - - - 1019.6 - 0.0
30/06:00pm 15.1 - 10.8 75 2.3 - - - - - 1019.4 1019.5 0.0
30/05:30pm 17.3 - 11.0 66 3.4 - - - - - 1019.4 - 0.0
30/05:00pm 18.6 - 11.5 63 3.9 - - - - - 1019.5 - 0.0
30/04:30pm 19.8 - 9.7 52 5.4 - - - - - 1019.5 - 0.0
30/04:00pm 20.3 - 10.3 52 5.4 - - - - - 1019.6 - 0.0
30/03:30pm 20.7 - 9.9 50 5.8 - - - - - 1019.7 - 0.0
30/03:00pm 20.7 - 9.0 47 6.2 - - - - - 1019.8 1019.9 0.0
30/02:30pm 20.7 - 9.7 49 5.9 - - - - - 1020.0 - 0.0

Other Formats:

Comma delimited format used in spreadsheet applications
http://www.bom.gov.au/fwo/IDS60801/IDS60801.94821.axf

JavaScript Object Notation format (JSON) in row-major order
http://www.bom.gov.au/fwo/IDS60801/IDS60801.94821.json